SBGO/GYN METAR and TAF weather

Enter ICAO airport designator
Station Type Date Time Source
SBGO METAR 2022/06/25 23:00 UTC NOAA

SBGO 252300Z 12003KT CAVOK 23/10 Q1019


Station Type Date Time Source
SBGO Decoded METAR 2022/06/25 23:00 UTC NOAA

Goiania Aeroporto , Brazil (SBGO) 16-38S 049-13W
Jun 25, 2022 - 07:00 PM EDT / 2022.06.25 2300 UTC
Wind: from the ESE (120 degrees) at 3 MPH (3 KT):0
Visibility: greater than 7 mile(s):0
Temperature: 73 F (23 C)
Dew Point: 50 F (10 C)
Relative Humidity: 43%
Pressure (altimeter): 30.09 in. Hg (1019 hPa)
ob: SBGO 252300Z 12003KT CAVOK 23/10 Q1019
cycle: 23

Station Type Date Time Source
SBGO TAF 2022/06/25 18:03 UTC NOAA

TAF SBGO 251500Z 2518/2618 13005KT CAVOK TX30/2518Z TN14/2609Z
BECMG 2600/2602 00000KT
BECMG 2612/2614 09007KT
RMK PGH

Example: see airport list